Baton Rouge Metro-Ryan, LA

8:18 AM CDT on March 25, 2017 (GMT -0500)
Baton Rouge Metro-Ryan | | Change Station

Elev 69 ft 30.53 °N, 91.15 °W | Updated 25 minutes ago

Thunderstorms and Rain
Thunderstorm Rain Mist
62 °F
Feels Like 62 °F
N
6
Wind Variable Wind from ESE

Today
High -- | Low -- °F
--% Chance of Precip.
Yesterday
High -- | Low -- °F
Precip. -- in
Pressure 30.07 in
Visibility 2.5 miles
Clouds Few 2000 ft
Scattered Clouds 4100 ft
Overcast 7000 ft
Dew Point 59 °F
Humidity 90%
Rainfall 0.57 in
Snow Depth Not available.
7:01 AM 7:19 PM
Waning Crescent, 8% visible
METAR KBTR 251253Z 12005KT 2 1/2SM TSRA BR FEW020 SCT041 OVC070 17/15 A3007 RMK AO2 LTG DSNT SW TSE17B30 SLP183 P0020 T01670150
Pressure 30.07 in
Visibility 2.5 miles
Clouds Few 2000 ft
Scattered Clouds 4100 ft
Overcast 7000 ft
Dew Point 59 °F
Humidity 90%
Rainfall 0.57 in
Snow Depth Not available.
7:01 AM 7:19 PM
Waning Crescent, 8% visible
METAR KBTR 251253Z 12005KT 2 1/2SM TSRA BR FEW020 SCT041 OVC070 17/15 A3007 RMK AO2 LTG DSNT SW TSE17B30 SLP183 P0020 T01670150

Get Severe Weather Alerts

Thanks for signing up!

Be on the lookout for a verification email in your inbox.

You'll start receiving the daily forecast at 8 AM.

×

10-Day Weather Forecast

Almanac

Astronomy

Mar. 25, 2017 Rise Set
Actual Time
Civil Twilight
Nautical Twilight
Astronomical Twilight
Moon
Length of Visible Light
Length of Day
Tomorrow will be .
, % of the Moon is Illuminated

Today's Extremes

State Highs State Lows

Community

WunderPhotos

Upload Photos

1,962,540 photos uploaded!

WunderBlog® & News

Nearby

Air Quality

  Air Quality AQ Index Pollutant
Not available.

Snow Depth

Station Depth Elevation

Earthquake Activity

City Distance Mag. Time & Date
Minimum magnitude displayed is 2.5.

Earthquake Activity

City Distance Mag. Time & Date
Minimum magnitude displayed is 2.5.

Coastal Water Temperatures

Place Temperature

Stations

Nearby Weather Stations

Station Location Temp. Windchill Dew Point Humidity Wind Precip. Elev Updated Type
                   

Watches & Warnings

There are currently no watches in effect.